sensor_id;sensor_type;location;lat;lon;timestamp;pressure;altitude;pressure_sealevel;temperature;humidity
13934;BME280;7039;52.168;9.866;2022-10-26T10:52:22;100683.22;;;17.99;77.50
13934;BME280;7039;52.168;9.866;2022-10-26T10:54:55;100682.72;;;18.16;76.17
13934;BME280;7039;52.168;9.866;2022-10-26T10:57:31;100677.19;;;18.42;74.94
13934;BME280;7039;52.168;9.866;2022-10-26T11:00:03;100680.69;;;18.42;72.93
13934;BME280;7039;52.168;9.866;2022-10-26T11:03:04;100673.28;;;18.80;72.83
13934;BME280;7039;52.168;9.866;2022-10-26T11:05:59;100683.72;;;18.92;73.80
13934;BME280;7039;52.168;9.866;2022-10-26T11:08:34;100685.53;;;18.92;73.45
13934;BME280;7039;52.168;9.866;2022-10-26T11:11:07;100676.34;;;18.96;73.07
13934;BME280;7039;52.168;9.866;2022-10-26T11:13:37;100677.06;;;18.98;73.83
13934;BME280;7039;52.168;9.866;2022-10-26T11:16:11;100672.91;;;19.16;72.51
13934;BME280;7039;52.168;9.866;2022-10-26T11:18:40;100681.50;;;19.30;72.64
13934;BME280;7039;52.168;9.866;2022-10-26T11:21:14;100685.16;;;19.59;72.04
13934;BME280;7039;52.168;9.866;2022-10-26T11:23:46;100668.91;;;19.43;72.30
13934;BME280;7039;52.168;9.866;2022-10-26T11:26:19;100670.66;;;19.54;71.54
13934;BME280;7039;52.168;9.866;2022-10-26T11:28:48;100671.78;;;19.51;71.25
13934;BME280;7039;52.168;9.866;2022-10-26T11:31:21;100674.75;;;19.58;71.46
13934;BME280;7039;52.168;9.866;2022-10-26T11:34:00;100680.31;;;19.76;71.66
13934;BME280;7039;52.168;9.866;2022-10-26T11:36:30;100685.31;;;19.79;70.89
13934;BME280;7039;52.168;9.866;2022-10-26T11:39:08;100674.75;;;19.79;69.34
13934;BME280;7039;52.168;9.866;2022-10-26T11:41:39;100673.88;;;20.09;73.13
13934;BME280;7039;52.168;9.866;2022-10-26T11:44:14;100676.22;;;20.33;69.79
13934;BME280;7039;52.168;9.866;2022-10-26T11:46:47;100684.19;;;20.43;70.93
13934;BME280;7039;52.168;9.866;2022-10-26T11:49:21;100688.75;;;20.31;69.54
13934;BME280;7039;52.168;9.866;2022-10-26T11:51:52;100681.44;;;20.14;67.38
13934;BME280;7039;52.168;9.866;2022-10-26T11:54:25;100686.09;;;20.21;67.00
13934;BME280;7039;52.168;9.866;2022-10-26T11:56:55;100691.84;;;20.36;64.93
13934;BME280;7039;52.168;9.866;2022-10-26T11:59:25;100692.53;;;20.38;63.04
13934;BME280;7039;52.168;9.866;2022-10-26T12:01:56;100701.78;;;20.54;64.32
13934;BME280;7039;52.168;9.866;2022-10-26T12:04:29;100694.63;;;20.95;63.65
13934;BME280;7039;52.168;9.866;2022-10-26T12:06:58;100693.81;;;21.23;63.90
13934;BME280;7039;52.168;9.866;2022-10-26T12:09:31;100690.84;;;20.97;63.13
13934;BME280;7039;52.168;9.866;2022-10-26T12:12:03;100696.72;;;21.20;65.72
13934;BME280;7039;52.168;9.866;2022-10-26T12:14:35;100691.28;;;21.02;62.65
13934;BME280;7039;52.168;9.866;2022-10-26T12:17:08;100697.16;;;21.06;62.96
13934;BME280;7039;52.168;9.866;2022-10-26T12:19:42;100692.66;;;21.36;63.25
13934;BME280;7039;52.168;9.866;2022-10-26T12:22:12;100690.84;;;21.26;61.99
13934;BME280;7039;52.168;9.866;2022-10-26T12:24:44;100689.19;;;21.16;63.86
13934;BME280;7039;52.168;9.866;2022-10-26T12:27:29;100688.19;;;21.36;62.46
13934;BME280;7039;52.168;9.866;2022-10-26T12:30:21;100688.13;;;21.75;61.25
13934;BME280;7039;52.168;9.866;2022-10-26T12:32:50;100689.69;;;21.68;62.43
13934;BME280;7039;52.168;9.866;2022-10-26T12:35:29;100697.41;;;21.61;61.14
13934;BME280;7039;52.168;9.866;2022-10-26T12:37:57;100694.50;;;21.45;61.55
13934;BME280;7039;52.168;9.866;2022-10-26T12:40:42;100684.56;;;21.66;61.94
13934;BME280;7039;52.168;9.866;2022-10-26T12:43:35;100688.09;;;21.95;60.90
13934;BME280;7039;52.168;9.866;2022-10-26T12:52:26;100699.38;;;22.44;58.68
13934;BME280;7039;52.168;9.866;2022-10-26T12:55:16;100695.38;;;22.30;59.99
13934;BME280;7039;52.168;9.866;2022-10-26T12:57:52;100697.50;;;22.54;60.42
13934;BME280;7039;52.168;9.866;2022-10-26T13:00:23;100695.09;;;22.33;59.92
13934;BME280;7039;52.168;9.866;2022-10-26T13:03:06;100695.75;;;22.07;59.69
13934;BME280;7039;52.168;9.866;2022-10-26T13:08:51;100698.41;;;21.60;62.89
13934;BME280;7039;52.168;9.866;2022-10-26T13:11:24;100699.09;;;21.43;62.61
13934;BME280;7039;52.168;9.866;2022-10-26T13:13:56;100692.94;;;21.23;62.58
13934;BME280;7039;52.168;9.866;2022-10-26T13:16:25;100686.53;;;21.45;62.46
13934;BME280;7039;52.168;9.866;2022-10-26T13:18:53;100692.81;;;21.54;63.45
13934;BME280;7039;52.168;9.866;2022-10-26T13:21:21;100693.25;;;21.49;63.23
13934;BME280;7039;52.168;9.866;2022-10-26T13:23:55;100695.81;;;21.88;62.48
13934;BME280;7039;52.168;9.866;2022-10-26T13:26:26;100707.41;;;21.77;61.48
13934;BME280;7039;52.168;9.866;2022-10-26T13:28:56;100703.81;;;21.68;60.44
13934;BME280;7039;52.168;9.866;2022-10-26T13:31:51;100700.63;;;21.65;62.19
13934;BME280;7039;52.168;9.866;2022-10-26T13:34:20;100706.47;;;21.68;60.99
13934;BME280;7039;52.168;9.866;2022-10-26T13:36:50;100705.47;;;21.79;59.94
13934;BME280;7039;52.168;9.866;2022-10-26T13:39:21;100708.97;;;21.70;60.10
13934;BME280;7039;52.168;9.866;2022-10-26T13:41:50;100710.09;;;21.67;61.91
13934;BME280;7039;52.168;9.866;2022-10-26T13:44:22;100712.22;;;21.54;60.62
13934;BME280;7039;52.168;9.866;2022-10-26T13:46:53;100712.47;;;21.80;61.46
13934;BME280;7039;52.168;9.866;2022-10-26T13:49:25;100715.78;;;21.82;59.90
13934;BME280;7039;52.168;9.866;2022-10-26T13:51:53;100707.25;;;21.88;61.04
13934;BME280;7039;52.168;9.866;2022-10-26T13:54:24;100715.53;;;21.85;61.59
13934;BME280;7039;52.168;9.866;2022-10-26T13:57:02;100713.56;;;21.78;59.95
13934;BME280;7039;52.168;9.866;2022-10-26T13:59:33;100709.16;;;21.59;61.40
13934;BME280;7039;52.168;9.866;2022-10-26T14:02:13;100706.19;;;21.72;61.81
13934;BME280;7039;52.168;9.866;2022-10-26T14:04:44;100712.72;;;21.77;61.33
13934;BME280;7039;52.168;9.866;2022-10-26T14:07:15;100713.81;;;21.94;60.38
13934;BME280;7039;52.168;9.866;2022-10-26T14:09:49;100722.97;;;22.19;60.33
13934;BME280;7039;52.168;9.866;2022-10-26T14:12:15;100716.69;;;22.48;60.35
13934;BME280;7039;52.168;9.866;2022-10-26T14:14:43;100711.09;;;22.51;58.77
13934;BME280;7039;52.168;9.866;2022-10-26T14:17:17;100711.81;;;22.43;59.19
13934;BME280;7039;52.168;9.866;2022-10-26T14:19:44;100719.84;;;22.34;60.97
13934;BME280;7039;52.168;9.866;2022-10-26T14:22:19;100721.75;;;22.69;59.37
13934;BME280;7039;52.168;9.866;2022-10-26T14:24:50;100729.44;;;22.44;58.86
13934;BME280;7039;52.168;9.866;2022-10-26T14:27:17;100725.94;;;22.71;58.34
13934;BME280;7039;52.168;9.866;2022-10-26T14:29:46;100738.31;;;23.26;57.71
13934;BME280;7039;52.168;9.866;2022-10-26T14:32:20;100732.34;;;22.97;58.14
13934;BME280;7039;52.168;9.866;2022-10-26T14:34:46;100737.66;;;22.79;57.67
13934;BME280;7039;52.168;9.866;2022-10-26T14:37:21;100740.84;;;23.28;57.56
13934;BME280;7039;52.168;9.866;2022-10-26T14:39:49;100730.72;;;22.68;58.86
13934;BME280;7039;52.168;9.866;2022-10-26T14:42:22;100736.72;;;22.42;60.05
13934;BME280;7039;52.168;9.866;2022-10-26T14:44:52;100743.84;;;22.04;61.59
13934;BME280;7039;52.168;9.866;2022-10-26T14:47:22;100750.03;;;21.85;61.72
13934;BME280;7039;52.168;9.866;2022-10-26T14:49:49;100741.69;;;21.41;61.91
13934;BME280;7039;52.168;9.866;2022-10-26T14:52:21;100751.44;;;21.12;64.03
13934;BME280;7039;52.168;9.866;2022-10-26T14:54:56;100748.78;;;20.82;65.19
13934;BME280;7039;52.168;9.866;2022-10-26T14:57:29;100757.50;;;20.73;65.94
13934;BME280;7039;52.168;9.866;2022-10-26T15:00:03;100762.56;;;20.76;66.60
13934;BME280;7039;52.168;9.866;2022-10-26T15:02:30;100760.31;;;20.72;65.18
13934;BME280;7039;52.168;9.866;2022-10-26T15:04:58;100758.81;;;20.48;66.16
13934;BME280;7039;52.168;9.866;2022-10-26T15:07:33;100761.03;;;20.12;67.66
13934;BME280;7039;52.168;9.866;2022-10-26T15:10:00;100772.66;;;20.00;68.68
13934;BME280;7039;52.168;9.866;2022-10-26T15:12:30;100769.97;;;19.90;69.44
13934;BME280;7039;52.168;9.866;2022-10-26T15:15:16;100770.44;;;19.63;69.96
13934;BME280;7039;52.168;9.866;2022-10-26T15:17:49;100775.53;;;19.55;70.39
13934;BME280;7039;52.168;9.866;2022-10-26T15:20:17;100783.38;;;19.45;70.76
13934;BME280;7039;52.168;9.866;2022-10-26T15:22:49;100790.28;;;19.36;71.26
13934;BME280;7039;52.168;9.866;2022-10-26T15:25:19;100793.78;;;19.26;71.74
13934;BME280;7039;52.168;9.866;2022-10-26T15:27:47;100791.81;;;18.95;72.38
13934;BME280;7039;52.168;9.866;2022-10-26T15:30:22;100793.75;;;18.82;73.20
13934;BME280;7039;52.168;9.866;2022-10-26T15:32:50;100788.72;;;18.68;73.93
13934;BME280;7039;52.168;9.866;2022-10-26T15:35:27;100789.69;;;18.55;75.17
13934;BME280;7039;52.168;9.866;2022-10-26T15:37:55;100793.06;;;18.35;75.92
13934;BME280;7039;52.168;9.866;2022-10-26T15:40:23;100792.53;;;18.30;76.25
13934;BME280;7039;52.168;9.866;2022-10-26T15:42:51;100791.69;;;18.07;76.75
13934;BME280;7039;52.168;9.866;2022-10-26T15:45:21;100789.00;;;17.95;77.55
13934;BME280;7039;52.168;9.866;2022-10-26T15:47:48;100789.75;;;17.73;77.93
13934;BME280;7039;52.168;9.866;2022-10-26T15:50:18;100791.19;;;17.66;78.48
13934;BME280;7039;52.168;9.866;2022-10-26T15:52:47;100789.47;;;17.54;78.61
13934;BME280;7039;52.168;9.866;2022-10-26T15:55:14;100791.94;;;17.44;79.00
13934;BME280;7039;52.168;9.866;2022-10-26T15:57:41;100798.25;;;17.30;79.60
13934;BME280;7039;52.168;9.866;2022-10-26T16:00:13;100799.28;;;17.28;79.64
13934;BME280;7039;52.168;9.866;2022-10-26T16:02:43;100793.56;;;17.10;80.65
13934;BME280;7039;52.168;9.866;2022-10-26T16:05:11;100798.25;;;16.94;81.46
13934;BME280;7039;52.168;9.866;2022-10-26T16:07:38;100809.13;;;16.76;82.36
13934;BME280;7039;52.168;9.866;2022-10-26T16:10:11;100805.84;;;16.73;82.37
13934;BME280;7039;52.168;9.866;2022-10-26T16:12:39;100806.00;;;16.58;83.13
13934;BME280;7039;52.168;9.866;2022-10-26T16:15:08;100806.09;;;16.44;83.42
13934;BME280;7039;52.168;9.866;2022-10-26T16:17:34;100812.75;;;16.24;85.17
13934;BME280;7039;52.168;9.866;2022-10-26T16:20:02;100810.88;;;16.26;85.40
13934;BME280;7039;52.168;9.866;2022-10-26T16:22:28;100815.69;;;16.19;85.25
13934;BME280;7039;52.168;9.866;2022-10-26T16:24:55;100816.94;;;16.14;85.49
13934;BME280;7039;52.168;9.866;2022-10-26T16:27:21;100824.75;;;16.15;85.51
13934;BME280;7039;52.168;9.866;2022-10-26T16:29:48;100823.47;;;16.08;85.54
13934;BME280;7039;52.168;9.866;2022-10-26T16:32:14;100820.00;;;16.20;85.40
13934;BME280;7039;52.168;9.866;2022-10-26T16:34:41;100831.28;;;16.22;85.19
13934;BME280;7039;52.168;9.866;2022-10-26T16:37:08;100830.53;;;16.20;85.44
13934;BME280;7039;52.168;9.866;2022-10-26T16:39:35;100835.59;;;16.11;85.76
13934;BME280;7039;52.168;9.866;2022-10-26T16:42:01;100846.28;;;16.07;85.94
13934;BME280;7039;52.168;9.866;2022-10-26T16:44:28;100847.56;;;16.02;85.90
13934;BME280;7039;52.168;9.866;2022-10-26T16:46:54;100856.69;;;15.96;86.23
13934;BME280;7039;52.168;9.866;2022-10-26T16:49:20;100866.69;;;15.91;86.49
13934;BME280;7039;52.168;9.866;2022-10-26T16:51:47;100853.59;;;15.77;86.94
13934;BME280;7039;52.168;9.866;2022-10-26T16:54:15;100860.84;;;15.73;87.41
13934;BME280;7039;52.168;9.866;2022-10-26T16:56:41;100866.88;;;15.61;87.81
13934;BME280;7039;52.168;9.866;2022-10-26T16:59:08;100874.13;;;15.57;88.10
13934;BME280;7039;52.168;9.866;2022-10-26T17:01:34;100871.16;;;15.49;88.41
13934;BME280;7039;52.168;9.866;2022-10-26T17:04:01;100879.50;;;15.41;88.78
13934;BME280;7039;52.168;9.866;2022-10-26T17:06:27;100879.41;;;15.43;88.71
13934;BME280;7039;52.168;9.866;2022-10-26T17:08:54;100878.97;;;15.36;89.18
13934;BME280;7039;52.168;9.866;2022-10-26T17:11:22;100890.31;;;15.37;89.80
13934;BME280;7039;52.168;9.866;2022-10-26T17:13:52;100889.28;;;15.39;89.70
13934;BME280;7039;52.168;9.866;2022-10-26T17:16:20;100893.06;;;15.35;89.56
13934;BME280;7039;52.168;9.866;2022-10-26T17:18:48;100893.25;;;15.32;89.71
13934;BME280;7039;52.168;9.866;2022-10-26T17:21:16;100898.03;;;15.25;89.85
13934;BME280;7039;52.168;9.866;2022-10-26T17:23:43;100904.00;;;15.15;90.32
13934;BME280;7039;52.168;9.866;2022-10-26T17:26:14;100903.22;;;15.13;90.50
13934;BME280;7039;52.168;9.866;2022-10-26T17:28:41;100904.44;;;15.07;91.00
13934;BME280;7039;52.168;9.866;2022-10-26T17:31:10;100909.34;;;14.99;91.45
13934;BME280;7039;52.168;9.866;2022-10-26T17:33:39;100918.22;;;14.96;91.45
13934;BME280;7039;52.168;9.866;2022-10-26T17:36:08;100914.28;;;14.89;91.73
13934;BME280;7039;52.168;9.866;2022-10-26T17:38:36;100926.13;;;14.82;92.11
13934;BME280;7039;52.168;9.866;2022-10-26T17:41:04;100923.84;;;14.76;92.02
13934;BME280;7039;52.168;9.866;2022-10-26T17:43:32;100927.63;;;14.72;92.99
13934;BME280;7039;52.168;9.866;2022-10-26T17:46:02;100928.00;;;14.80;93.26
13934;BME280;7039;52.168;9.866;2022-10-26T20:05:27;101131.91;;;14.33;97.81
13934;BME280;7039;52.168;9.866;2022-10-26T20:08:09;101138.66;;;14.53;96.88
13934;BME280;7039;52.168;9.866;2022-10-26T20:10:39;101141.47;;;14.50;96.64
13934;BME280;7039;52.168;9.866;2022-10-26T20:13:11;101146.34;;;14.58;96.56
13934;BME280;7039;52.168;9.866;2022-10-26T20:15:38;101145.56;;;14.56;96.46
13934;BME280;7039;52.168;9.866;2022-10-26T20:18:07;101149.38;;;14.66;96.47
13934;BME280;7039;52.168;9.866;2022-10-26T20:28:10;101156.97;;;14.71;95.32
13934;BME280;7039;52.168;9.866;2022-10-26T20:34:52;101169.28;;;14.54;96.07
13934;BME280;7039;52.168;9.866;2022-10-26T20:44:28;101180.25;;;14.29;97.03
13934;BME280;7039;52.168;9.866;2022-10-26T20:47:14;101183.06;;;14.26;96.98
13934;BME280;7039;52.168;9.866;2022-10-26T20:50:08;101191.25;;;14.20;97.47
13934;BME280;7039;52.168;9.866;2022-10-26T20:52:58;101191.81;;;14.09;97.41
13934;BME280;7039;52.168;9.866;2022-10-26T20:56:23;101200.38;;;14.13;97.49
13934;BME280;7039;52.168;9.866;2022-10-26T21:12:09;101214.75;;;14.06;98.38
13934;BME280;7039;52.168;9.866;2022-10-26T21:35:29;101233.19;;;14.04;99.08
13934;BME280;7039;52.168;9.866;2022-10-26T21:47:53;101238.53;;;14.18;98.25
13934;BME280;7039;52.168;9.866;2022-10-26T21:54:13;101231.50;;;14.19;96.21
13934;BME280;7039;52.168;9.866;2022-10-26T21:56:47;101235.16;;;14.16;96.53
13934;BME280;7039;52.168;9.866;2022-10-26T21:59:34;101236.16;;;14.14;96.59
13934;BME280;7039;52.168;9.866;2022-10-26T22:25:33;101258.50;;;13.70;98.13
13934;BME280;7039;52.168;9.866;2022-10-26T22:28:15;101257.25;;;13.60;97.94
13934;BME280;7039;52.168;9.866;2022-10-26T23:09:38;101296.09;;;13.34;100.00
13934;BME280;7039;52.168;9.866;2022-10-26T23:12:07;101287.88;;;13.60;100.00
13934;BME280;7039;52.168;9.866;2022-10-26T23:14:34;101290.13;;;13.67;98.98
13934;BME280;7039;52.168;9.866;2022-10-26T23:17:03;101283.69;;;13.55;98.44
13934;BME280;7039;52.168;9.866;2022-10-26T23:19:31;101286.66;;;13.49;98.68
13934;BME280;7039;52.168;9.866;2022-10-26T23:42:34;101299.44;;;13.55;98.12
13934;BME280;7039;52.168;9.866;2022-10-26T23:45:07;101294.63;;;13.46;98.04
13934;BME280;7039;52.168;9.866;2022-10-26T23:47:36;101299.13;;;13.62;98.38
13934;BME280;7039;52.168;9.866;2022-10-26T23:50:08;101296.28;;;13.66;97.93
13934;BME280;7039;52.168;9.866;2022-10-26T23:52:43;101298.00;;;13.67;98.65
13934;BME280;7039;52.168;9.866;2022-10-26T23:55:49;101299.38;;;13.74;98.28
